sensor_id;sensor_type;location;lat;lon;timestamp;temperature;humidity
76967;DHT22;65904;52.278;20.972;2023-08-06T00:00:21;24.30;99.90
76967;DHT22;65904;52.278;20.972;2023-08-06T00:03:27;24.30;99.90
76967;DHT22;65904;52.278;20.972;2023-08-06T00:06:13;24.30;99.90
76967;DHT22;65904;52.278;20.972;2023-08-06T00:08:59;24.30;99.90
76967;DHT22;65904;52.278;20.972;2023-08-06T00:11:45;24.30;99.90
76967;DHT22;65904;52.278;20.972;2023-08-06T00:14:32;24.30;99.90
76967;DHT22;65904;52.278;20.972;2023-08-06T00:17:18;24.30;99.90
76967;DHT22;65904;52.278;20.972;2023-08-06T00:20:05;24.30;99.90
76967;DHT22;65904;52.278;20.972;2023-08-06T00:22:52;24.30;99.90
76967;DHT22;65904;52.278;20.972;2023-08-06T00:25:38;24.20;99.90
76967;DHT22;65904;52.278;20.972;2023-08-06T00:28:24;24.30;99.90
76967;DHT22;65904;52.278;20.972;2023-08-06T00:31:11;24.30;99.90
76967;DHT22;65904;52.278;20.972;2023-08-06T00:33:57;24.30;99.90
76967;DHT22;65904;52.278;20.972;2023-08-06T00:36:43;24.30;99.90
76967;DHT22;65904;52.278;20.972;2023-08-06T00:39:29;24.30;99.90
76967;DHT22;65904;52.278;20.972;2023-08-06T00:42:15;24.30;99.90
76967;DHT22;65904;52.278;20.972;2023-08-06T00:45:05;24.30;99.90
76967;DHT22;65904;52.278;20.972;2023-08-06T00:47:53;24.30;99.90
76967;DHT22;65904;52.278;20.972;2023-08-06T00:50:39;24.30;99.90
76967;DHT22;65904;52.278;20.972;2023-08-06T00:53:25;24.30;99.90
76967;DHT22;65904;52.278;20.972;2023-08-06T00:56:11;24.30;99.90
76967;DHT22;65904;52.278;20.972;2023-08-06T00:58:58;24.30;99.90
76967;DHT22;65904;52.278;20.972;2023-08-06T01:01:44;24.30;99.90
76967;DHT22;65904;52.278;20.972;2023-08-06T01:04:32;24.20;99.90
76967;DHT22;65904;52.278;20.972;2023-08-06T01:07:21;24.20;99.90
76967;DHT22;65904;52.278;20.972;2023-08-06T01:10:15;24.30;99.90
76967;DHT22;65904;52.278;20.972;2023-08-06T01:13:06;24.20;99.90
76967;DHT22;65904;52.278;20.972;2023-08-06T01:15:54;24.30;99.90
76967;DHT22;65904;52.278;20.972;2023-08-06T01:18:41;24.30;99.90
76967;DHT22;65904;52.278;20.972;2023-08-06T01:21:32;24.30;99.90
76967;DHT22;65904;52.278;20.972;2023-08-06T01:24:18;24.20;99.90
76967;DHT22;65904;52.278;20.972;2023-08-06T01:27:04;24.20;99.90
76967;DHT22;65904;52.278;20.972;2023-08-06T01:29:56;24.20;99.90
76967;DHT22;65904;52.278;20.972;2023-08-06T01:32:46;24.20;99.90
76967;DHT22;65904;52.278;20.972;2023-08-06T01:35:34;24.20;99.90
76967;DHT22;65904;52.278;20.972;2023-08-06T01:38:22;24.20;99.90
76967;DHT22;65904;52.278;20.972;2023-08-06T01:41:08;24.20;99.90
76967;DHT22;65904;52.278;20.972;2023-08-06T01:43:55;24.20;99.90
76967;DHT22;65904;52.278;20.972;2023-08-06T01:46:41;24.20;99.90
76967;DHT22;65904;52.278;20.972;2023-08-06T01:49:27;24.20;99.90
76967;DHT22;65904;52.278;20.972;2023-08-06T01:52:13;24.20;99.90
76967;DHT22;65904;52.278;20.972;2023-08-06T01:55:01;24.30;99.90
76967;DHT22;65904;52.278;20.972;2023-08-06T01:57:47;24.20;99.90
76967;DHT22;65904;52.278;20.972;2023-08-06T02:00:32;24.20;99.90
76967;DHT22;65904;52.278;20.972;2023-08-06T02:03:19;24.20;99.90
76967;DHT22;65904;52.278;20.972;2023-08-06T02:06:06;24.20;99.90
76967;DHT22;65904;52.278;20.972;2023-08-06T02:08:53;24.20;99.90
76967;DHT22;65904;52.278;20.972;2023-08-06T02:11:40;24.20;99.90
76967;DHT22;65904;52.278;20.972;2023-08-06T02:14:26;24.20;99.90
76967;DHT22;65904;52.278;20.972;2023-08-06T02:17:12;24.20;99.90
76967;DHT22;65904;52.278;20.972;2023-08-06T02:19:59;24.20;99.90
76967;DHT22;65904;52.278;20.972;2023-08-06T02:22:45;24.20;99.90
76967;DHT22;65904;52.278;20.972;2023-08-06T02:25:31;24.20;99.90
76967;DHT22;65904;52.278;20.972;2023-08-06T02:28:19;24.20;99.90
76967;DHT22;65904;52.278;20.972;2023-08-06T02:31:05;24.20;99.90
76967;DHT22;65904;52.278;20.972;2023-08-06T02:33:53;24.20;99.90
76967;DHT22;65904;52.278;20.972;2023-08-06T02:36:40;24.20;99.90
76967;DHT22;65904;52.278;20.972;2023-08-06T02:39:26;24.20;99.90
76967;DHT22;65904;52.278;20.972;2023-08-06T02:42:12;24.20;99.90
76967;DHT22;65904;52.278;20.972;2023-08-06T02:44:59;24.20;99.90
76967;DHT22;65904;52.278;20.972;2023-08-06T02:47:47;24.20;99.90
76967;DHT22;65904;52.278;20.972;2023-08-06T02:50:37;24.20;99.90
76967;DHT22;65904;52.278;20.972;2023-08-06T02:53:23;24.20;99.90
76967;DHT22;65904;52.278;20.972;2023-08-06T02:56:09;24.20;99.90
76967;DHT22;65904;52.278;20.972;2023-08-06T02:59:23;24.20;99.90
76967;DHT22;65904;52.278;20.972;2023-08-06T03:02:25;24.20;99.90
76967;DHT22;65904;52.278;20.972;2023-08-06T03:05:20;24.20;99.90
76967;DHT22;65904;52.278;20.972;2023-08-06T03:08:06;24.20;99.90
76967;DHT22;65904;52.278;20.972;2023-08-06T03:10:54;24.20;99.90
76967;DHT22;65904;52.278;20.972;2023-08-06T03:13:40;24.20;99.90
76967;DHT22;65904;52.278;20.972;2023-08-06T03:16:27;24.20;99.90
76967;DHT22;65904;52.278;20.972;2023-08-06T03:19:15;24.20;99.90
76967;DHT22;65904;52.278;20.972;2023-08-06T03:22:02;24.20;99.90
76967;DHT22;65904;52.278;20.972;2023-08-06T03:24:50;24.20;99.90
76967;DHT22;65904;52.278;20.972;2023-08-06T03:27:36;24.20;99.90
76967;DHT22;65904;52.278;20.972;2023-08-06T03:30:22;24.20;99.90
76967;DHT22;65904;52.278;20.972;2023-08-06T03:33:11;24.30;99.90
76967;DHT22;65904;52.278;20.972;2023-08-06T03:35:59;24.20;99.90
76967;DHT22;65904;52.278;20.972;2023-08-06T03:38:47;24.20;99.90
76967;DHT22;65904;52.278;20.972;2023-08-06T03:41:33;24.20;99.90
76967;DHT22;65904;52.278;20.972;2023-08-06T03:44:19;24.20;99.90
76967;DHT22;65904;52.278;20.972;2023-08-06T03:47:05;24.30;99.90
76967;DHT22;65904;52.278;20.972;2023-08-06T03:49:52;24.30;99.90
76967;DHT22;65904;52.278;20.972;2023-08-06T03:52:40;24.30;99.90
76967;DHT22;65904;52.278;20.972;2023-08-06T03:55:27;24.30;99.90
76967;DHT22;65904;52.278;20.972;2023-08-06T03:58:12;24.20;99.90
76967;DHT22;65904;52.278;20.972;2023-08-06T04:00:59;24.30;99.90
76967;DHT22;65904;52.278;20.972;2023-08-06T04:03:48;24.30;99.90
76967;DHT22;65904;52.278;20.972;2023-08-06T04:06:34;24.30;99.90
76967;DHT22;65904;52.278;20.972;2023-08-06T04:09:21;24.30;99.90
76967;DHT22;65904;52.278;20.972;2023-08-06T04:12:07;24.30;99.90
76967;DHT22;65904;52.278;20.972;2023-08-06T04:14:53;24.30;99.90
76967;DHT22;65904;52.278;20.972;2023-08-06T04:17:39;24.30;99.90
76967;DHT22;65904;52.278;20.972;2023-08-06T04:20:25;24.30;99.90
76967;DHT22;65904;52.278;20.972;2023-08-06T04:23:12;24.30;99.90
76967;DHT22;65904;52.278;20.972;2023-08-06T04:25:59;24.30;99.90
76967;DHT22;65904;52.278;20.972;2023-08-06T04:28:50;24.30;99.90
76967;DHT22;65904;52.278;20.972;2023-08-06T04:31:35;24.40;99.90
76967;DHT22;65904;52.278;20.972;2023-08-06T04:34:22;24.40;99.90
76967;DHT22;65904;52.278;20.972;2023-08-06T04:37:08;24.40;99.90
76967;DHT22;65904;52.278;20.972;2023-08-06T04:39:54;24.40;99.90
76967;DHT22;65904;52.278;20.972;2023-08-06T04:42:43;24.40;99.90
76967;DHT22;65904;52.278;20.972;2023-08-06T04:45:29;24.40;99.90
76967;DHT22;65904;52.278;20.972;2023-08-06T04:48:15;24.40;99.90
76967;DHT22;65904;52.278;20.972;2023-08-06T04:51:01;24.40;99.90
76967;DHT22;65904;52.278;20.972;2023-08-06T04:53:46;24.50;99.90
76967;DHT22;65904;52.278;20.972;2023-08-06T04:56:33;24.50;99.90
76967;DHT22;65904;52.278;20.972;2023-08-06T04:59:20;24.50;99.90
76967;DHT22;65904;52.278;20.972;2023-08-06T05:02:06;24.50;99.90
76967;DHT22;65904;52.278;20.972;2023-08-06T05:04:52;24.60;99.90
76967;DHT22;65904;52.278;20.972;2023-08-06T05:07:38;24.60;99.90
76967;DHT22;65904;52.278;20.972;2023-08-06T05:10:24;24.60;99.90
76967;DHT22;65904;52.278;20.972;2023-08-06T05:13:10;24.60;99.90
76967;DHT22;65904;52.278;20.972;2023-08-06T05:15:57;24.60;99.90
76967;DHT22;65904;52.278;20.972;2023-08-06T05:18:43;24.70;99.90
76967;DHT22;65904;52.278;20.972;2023-08-06T05:21:29;24.70;99.90
76967;DHT22;65904;52.278;20.972;2023-08-06T05:24:15;24.70;99.90
76967;DHT22;65904;52.278;20.972;2023-08-06T05:27:00;24.80;99.90
76967;DHT22;65904;52.278;20.972;2023-08-06T05:29:47;24.80;99.90
76967;DHT22;65904;52.278;20.972;2023-08-06T05:32:34;24.90;99.90
76967;DHT22;65904;52.278;20.972;2023-08-06T05:35:20;24.90;99.90
76967;DHT22;65904;52.278;20.972;2023-08-06T05:38:06;24.90;99.90
76967;DHT22;65904;52.278;20.972;2023-08-06T05:40:52;24.90;99.90
76967;DHT22;65904;52.278;20.972;2023-08-06T05:43:38;24.90;99.90
76967;DHT22;65904;52.278;20.972;2023-08-06T05:46:24;24.90;99.90
76967;DHT22;65904;52.278;20.972;2023-08-06T05:49:12;24.90;99.90
76967;DHT22;65904;52.278;20.972;2023-08-06T05:51:58;25.00;99.90
76967;DHT22;65904;52.278;20.972;2023-08-06T05:54:44;25.00;99.90
76967;DHT22;65904;52.278;20.972;2023-08-06T05:57:30;25.00;99.90
76967;DHT22;65904;52.278;20.972;2023-08-06T06:00:16;25.00;99.90
76967;DHT22;65904;52.278;20.972;2023-08-06T06:03:03;25.10;99.90
76967;DHT22;65904;52.278;20.972;2023-08-06T06:05:50;25.10;99.90
76967;DHT22;65904;52.278;20.972;2023-08-06T06:08:37;25.10;99.90
76967;DHT22;65904;52.278;20.972;2023-08-06T06:11:22;25.10;99.90
76967;DHT22;65904;52.278;20.972;2023-08-06T06:14:08;25.10;99.90
76967;DHT22;65904;52.278;20.972;2023-08-06T06:16:54;25.20;99.90
76967;DHT22;65904;52.278;20.972;2023-08-06T06:19:40;25.20;99.90
76967;DHT22;65904;52.278;20.972;2023-08-06T06:22:27;25.20;99.90
76967;DHT22;65904;52.278;20.972;2023-08-06T06:25:14;25.20;99.90
76967;DHT22;65904;52.278;20.972;2023-08-06T06:27:59;25.10;99.90
76967;DHT22;65904;52.278;20.972;2023-08-06T06:30:46;25.10;99.90
76967;DHT22;65904;52.278;20.972;2023-08-06T06:33:31;25.10;99.90
76967;DHT22;65904;52.278;20.972;2023-08-06T06:36:17;25.10;99.90
76967;DHT22;65904;52.278;20.972;2023-08-06T06:39:04;25.10;99.90
76967;DHT22;65904;52.278;20.972;2023-08-06T06:41:50;25.10;99.90
76967;DHT22;65904;52.278;20.972;2023-08-06T06:44:43;25.20;99.90
76967;DHT22;65904;52.278;20.972;2023-08-06T06:47:29;25.20;99.90
76967;DHT22;65904;52.278;20.972;2023-08-06T06:50:15;25.20;99.90
76967;DHT22;65904;52.278;20.972;2023-08-06T06:53:01;25.20;99.90
76967;DHT22;65904;52.278;20.972;2023-08-06T06:55:48;25.20;99.90
76967;DHT22;65904;52.278;20.972;2023-08-06T06:58:34;25.20;99.90
76967;DHT22;65904;52.278;20.972;2023-08-06T07:01:19;25.20;99.90
76967;DHT22;65904;52.278;20.972;2023-08-06T07:04:06;25.20;99.90
76967;DHT22;65904;52.278;20.972;2023-08-06T07:06:51;25.20;99.90
76967;DHT22;65904;52.278;20.972;2023-08-06T07:09:37;25.20;99.90
76967;DHT22;65904;52.278;20.972;2023-08-06T07:12:25;25.30;99.90
76967;DHT22;65904;52.278;20.972;2023-08-06T07:15:11;25.30;99.90
76967;DHT22;65904;52.278;20.972;2023-08-06T07:17:57;25.30;99.90
76967;DHT22;65904;52.278;20.972;2023-08-06T07:20:47;25.30;99.90
76967;DHT22;65904;52.278;20.972;2023-08-06T07:23:33;25.40;99.90
76967;DHT22;65904;52.278;20.972;2023-08-06T07:26:19;25.40;99.90
76967;DHT22;65904;52.278;20.972;2023-08-06T07:29:07;25.40;99.90
76967;DHT22;65904;52.278;20.972;2023-08-06T07:31:52;25.40;99.90
76967;DHT22;65904;52.278;20.972;2023-08-06T07:34:40;25.40;99.90
76967;DHT22;65904;52.278;20.972;2023-08-06T07:37:26;25.40;99.90
76967;DHT22;65904;52.278;20.972;2023-08-06T07:40:13;25.50;99.90
76967;DHT22;65904;52.278;20.972;2023-08-06T07:42:59;25.50;99.90
76967;DHT22;65904;52.278;20.972;2023-08-06T07:45:47;25.50;99.90
76967;DHT22;65904;52.278;20.972;2023-08-06T07:48:33;25.50;99.90
76967;DHT22;65904;52.278;20.972;2023-08-06T07:51:18;25.50;99.90
76967;DHT22;65904;52.278;20.972;2023-08-06T07:54:05;25.60;99.90
76967;DHT22;65904;52.278;20.972;2023-08-06T07:56:51;25.50;99.90
76967;DHT22;65904;52.278;20.972;2023-08-06T07:59:37;25.60;99.90
76967;DHT22;65904;52.278;20.972;2023-08-06T08:02:25;25.60;99.90
76967;DHT22;65904;52.278;20.972;2023-08-06T08:05:10;25.70;99.90
76967;DHT22;65904;52.278;20.972;2023-08-06T08:07:56;25.70;99.90
76967;DHT22;65904;52.278;20.972;2023-08-06T08:10:42;25.70;99.90
76967;DHT22;65904;52.278;20.972;2023-08-06T08:13:28;25.70;99.90
76967;DHT22;65904;52.278;20.972;2023-08-06T08:16:14;25.70;99.90
76967;DHT22;65904;52.278;20.972;2023-08-06T08:19:02;25.70;99.90
76967;DHT22;65904;52.278;20.972;2023-08-06T08:21:49;25.60;99.90
76967;DHT22;65904;52.278;20.972;2023-08-06T08:24:35;25.70;99.90
76967;DHT22;65904;52.278;20.972;2023-08-06T08:27:21;25.60;99.90
76967;DHT22;65904;52.278;20.972;2023-08-06T08:30:07;25.70;99.90
76967;DHT22;65904;52.278;20.972;2023-08-06T08:32:53;25.70;99.90
76967;DHT22;65904;52.278;20.972;2023-08-06T08:35:40;25.60;99.90
76967;DHT22;65904;52.278;20.972;2023-08-06T08:38:26;25.60;99.90
76967;DHT22;65904;52.278;20.972;2023-08-06T08:41:12;25.70;99.90
76967;DHT22;65904;52.278;20.972;2023-08-06T08:43:58;25.70;99.90
76967;DHT22;65904;52.278;20.972;2023-08-06T08:46:45;25.80;99.90
76967;DHT22;65904;52.278;20.972;2023-08-06T08:49:32;25.90;99.90
76967;DHT22;65904;52.278;20.972;2023-08-06T08:52:21;25.80;99.90
76967;DHT22;65904;52.278;20.972;2023-08-06T08:55:09;25.80;99.90
76967;DHT22;65904;52.278;20.972;2023-08-06T08:57:55;25.90;99.90
76967;DHT22;65904;52.278;20.972;2023-08-06T09:00:42;25.90;99.90
76967;DHT22;65904;52.278;20.972;2023-08-06T09:03:28;25.90;99.90
76967;DHT22;65904;52.278;20.972;2023-08-06T09:06:14;25.90;99.90
76967;DHT22;65904;52.278;20.972;2023-08-06T09:09:05;25.90;99.90
76967;DHT22;65904;52.278;20.972;2023-08-06T09:11:52;25.90;99.90
76967;DHT22;65904;52.278;20.972;2023-08-06T09:14:38;25.90;99.90
76967;DHT22;65904;52.278;20.972;2023-08-06T09:17:24;25.90;99.90
76967;DHT22;65904;52.278;20.972;2023-08-06T09:20:11;25.90;99.90
76967;DHT22;65904;52.278;20.972;2023-08-06T09:22:57;26.00;99.90
76967;DHT22;65904;52.278;20.972;2023-08-06T09:25:44;26.00;99.90
76967;DHT22;65904;52.278;20.972;2023-08-06T09:28:36;26.00;99.90
76967;DHT22;65904;52.278;20.972;2023-08-06T09:31:23;26.10;99.90
76967;DHT22;65904;52.278;20.972;2023-08-06T09:34:14;26.10;99.90
76967;DHT22;65904;52.278;20.972;2023-08-06T09:37:01;26.10;99.90
76967;DHT22;65904;52.278;20.972;2023-08-06T09:39:47;26.10;99.90
76967;DHT22;65904;52.278;20.972;2023-08-06T09:42:35;26.20;99.90
76967;DHT22;65904;52.278;20.972;2023-08-06T09:45:22;26.20;99.90
76967;DHT22;65904;52.278;20.972;2023-08-06T09:48:09;26.20;99.90
76967;DHT22;65904;52.278;20.972;2023-08-06T09:50:55;26.30;99.90
76967;DHT22;65904;52.278;20.972;2023-08-06T09:53:42;26.40;99.90
76967;DHT22;65904;52.278;20.972;2023-08-06T09:56:28;26.40;99.90
76967;DHT22;65904;52.278;20.972;2023-08-06T09:59:15;26.40;99.90
76967;DHT22;65904;52.278;20.972;2023-08-06T10:02:01;26.40;99.90
76967;DHT22;65904;52.278;20.972;2023-08-06T10:04:48;26.30;99.90
76967;DHT22;65904;52.278;20.972;2023-08-06T10:07:35;26.30;99.90
76967;DHT22;65904;52.278;20.972;2023-08-06T10:10:21;26.30;99.90
76967;DHT22;65904;52.278;20.972;2023-08-06T10:13:07;26.20;99.90
76967;DHT22;65904;52.278;20.972;2023-08-06T10:15:54;26.20;99.90
76967;DHT22;65904;52.278;20.972;2023-08-06T10:18:40;26.20;99.90
76967;DHT22;65904;52.278;20.972;2023-08-06T10:21:27;26.20;99.90
76967;DHT22;65904;52.278;20.972;2023-08-06T10:24:15;26.30;99.90
76967;DHT22;65904;52.278;20.972;2023-08-06T10:27:01;26.20;99.90
76967;DHT22;65904;52.278;20.972;2023-08-06T10:29:47;26.30;99.90
76967;DHT22;65904;52.278;20.972;2023-08-06T10:32:50;26.20;99.90
76967;DHT22;65904;52.278;20.972;2023-08-06T10:35:37;26.30;99.90
76967;DHT22;65904;52.278;20.972;2023-08-06T10:38:24;26.40;99.90
76967;DHT22;65904;52.278;20.972;2023-08-06T10:41:21;26.40;99.90
76967;DHT22;65904;52.278;20.972;2023-08-06T10:44:08;26.40;99.90
76967;DHT22;65904;52.278;20.972;2023-08-06T10:46:54;26.40;99.90
76967;DHT22;65904;52.278;20.972;2023-08-06T10:49:41;26.40;99.90
76967;DHT22;65904;52.278;20.972;2023-08-06T10:52:28;26.30;99.90
76967;DHT22;65904;52.278;20.972;2023-08-06T10:55:13;26.30;99.90
76967;DHT22;65904;52.278;20.972;2023-08-06T10:58:00;26.30;99.90
76967;DHT22;65904;52.278;20.972;2023-08-06T11:00:45;26.40;99.90
76967;DHT22;65904;52.278;20.972;2023-08-06T11:03:32;26.40;99.90
76967;DHT22;65904;52.278;20.972;2023-08-06T11:06:20;26.40;99.90
76967;DHT22;65904;52.278;20.972;2023-08-06T11:09:07;26.50;99.90
76967;DHT22;65904;52.278;20.972;2023-08-06T11:11:52;26.50;99.90
76967;DHT22;65904;52.278;20.972;2023-08-06T11:14:38;26.40;99.90
76967;DHT22;65904;52.278;20.972;2023-08-06T11:17:24;26.40;99.90
76967;DHT22;65904;52.278;20.972;2023-08-06T11:20:10;26.30;99.90
76967;DHT22;65904;52.278;20.972;2023-08-06T11:22:57;26.30;99.90
76967;DHT22;65904;52.278;20.972;2023-08-06T11:25:44;26.40;99.90
76967;DHT22;65904;52.278;20.972;2023-08-06T11:28:30;26.50;99.90
76967;DHT22;65904;52.278;20.972;2023-08-06T11:31:19;26.40;99.90
76967;DHT22;65904;52.278;20.972;2023-08-06T11:34:05;26.30;99.90
76967;DHT22;65904;52.278;20.972;2023-08-06T11:36:51;26.20;99.90
76967;DHT22;65904;52.278;20.972;2023-08-06T11:39:38;26.10;99.90
76967;DHT22;65904;52.278;20.972;2023-08-06T11:42:24;26.10;99.90
76967;DHT22;65904;52.278;20.972;2023-08-06T11:45:10;26.20;99.90
76967;DHT22;65904;52.278;20.972;2023-08-06T11:47:57;26.20;99.90
76967;DHT22;65904;52.278;20.972;2023-08-06T11:50:43;26.30;99.90
76967;DHT22;65904;52.278;20.972;2023-08-06T11:53:29;26.40;99.90
76967;DHT22;65904;52.278;20.972;2023-08-06T11:56:16;26.40;99.90
76967;DHT22;65904;52.278;20.972;2023-08-06T11:59:03;26.40;99.90
76967;DHT22;65904;52.278;20.972;2023-08-06T12:01:49;26.40;99.90
76967;DHT22;65904;52.278;20.972;2023-08-06T12:07:40;26.40;99.90
76967;DHT22;65904;52.278;20.972;2023-08-06T12:10:27;26.40;99.90
76967;DHT22;65904;52.278;20.972;2023-08-06T12:13:15;26.50;99.90
76967;DHT22;65904;52.278;20.972;2023-08-06T12:16:01;26.40;99.90
76967;DHT22;65904;52.278;20.972;2023-08-06T12:18:47;26.50;99.90
76967;DHT22;65904;52.278;20.972;2023-08-06T12:21:34;26.40;99.90
76967;DHT22;65904;52.278;20.972;2023-08-06T12:24:20;26.30;99.90
76967;DHT22;65904;52.278;20.972;2023-08-06T12:27:06;26.20;99.90
76967;DHT22;65904;52.278;20.972;2023-08-06T12:29:53;26.20;99.90
76967;DHT22;65904;52.278;20.972;2023-08-06T12:32:39;26.20;99.90
76967;DHT22;65904;52.278;20.972;2023-08-06T12:35:25;26.10;99.90
76967;DHT22;65904;52.278;20.972;2023-08-06T12:38:12;26.10;99.90
76967;DHT22;65904;52.278;20.972;2023-08-06T12:40:58;26.00;99.90
76967;DHT22;65904;52.278;20.972;2023-08-06T12:43:44;26.00;99.90
76967;DHT22;65904;52.278;20.972;2023-08-06T12:46:31;26.00;99.90
76967;DHT22;65904;52.278;20.972;2023-08-06T12:49:17;26.00;99.90
76967;DHT22;65904;52.278;20.972;2023-08-06T12:52:03;25.90;99.90
76967;DHT22;65904;52.278;20.972;2023-08-06T12:54:52;25.90;99.90
76967;DHT22;65904;52.278;20.972;2023-08-06T12:57:38;25.90;99.90
76967;DHT22;65904;52.278;20.972;2023-08-06T13:00:24;25.90;99.90
76967;DHT22;65904;52.278;20.972;2023-08-06T13:03:12;25.90;99.90
76967;DHT22;65904;52.278;20.972;2023-08-06T13:05:58;26.00;99.90
76967;DHT22;65904;52.278;20.972;2023-08-06T13:08:44;26.00;99.90
76967;DHT22;65904;52.278;20.972;2023-08-06T13:11:30;26.00;99.90
76967;DHT22;65904;52.278;20.972;2023-08-06T13:14:16;26.00;99.90
76967;DHT22;65904;52.278;20.972;2023-08-06T13:17:03;26.10;99.90
76967;DHT22;65904;52.278;20.972;2023-08-06T13:19:52;26.10;99.90
76967;DHT22;65904;52.278;20.972;2023-08-06T13:22:38;26.40;99.90
76967;DHT22;65904;52.278;20.972;2023-08-06T13:25:24;26.80;99.90
76967;DHT22;65904;52.278;20.972;2023-08-06T13:28:11;27.10;99.90
76967;DHT22;65904;52.278;20.972;2023-08-06T13:30:58;27.40;99.90
76967;DHT22;65904;52.278;20.972;2023-08-06T13:33:44;27.50;99.90
76967;DHT22;65904;52.278;20.972;2023-08-06T13:36:31;27.60;99.90
76967;DHT22;65904;52.278;20.972;2023-08-06T13:39:17;27.70;99.90
76967;DHT22;65904;52.278;20.972;2023-08-06T13:42:04;27.80;99.90
76967;DHT22;65904;52.278;20.972;2023-08-06T13:44:50;27.90;99.90
76967;DHT22;65904;52.278;20.972;2023-08-06T13:47:36;27.90;99.90
76967;DHT22;65904;52.278;20.972;2023-08-06T13:50:22;28.00;99.90
76967;DHT22;65904;52.278;20.972;2023-08-06T13:53:11;27.80;99.90
76967;DHT22;65904;52.278;20.972;2023-08-06T13:55:57;27.60;99.90
76967;DHT22;65904;52.278;20.972;2023-08-06T13:58:43;27.40;99.90
76967;DHT22;65904;52.278;20.972;2023-08-06T14:01:29;27.20;99.90
76967;DHT22;65904;52.278;20.972;2023-08-06T14:04:15;27.00;99.90
76967;DHT22;65904;52.278;20.972;2023-08-06T14:07:01;26.90;99.90
76967;DHT22;65904;52.278;20.972;2023-08-06T14:09:49;26.90;99.90
76967;DHT22;65904;52.278;20.972;2023-08-06T14:12:35;27.00;99.90
76967;DHT22;65904;52.278;20.972;2023-08-06T14:15:21;27.20;99.90
76967;DHT22;65904;52.278;20.972;2023-08-06T14:18:07;27.40;99.90
76967;DHT22;65904;52.278;20.972;2023-08-06T14:20:53;27.60;99.90
76967;DHT22;65904;52.278;20.972;2023-08-06T14:23:39;27.60;99.90
76967;DHT22;65904;52.278;20.972;2023-08-06T14:26:27;27.50;99.90
76967;DHT22;65904;52.278;20.972;2023-08-06T14:29:13;27.50;99.90
76967;DHT22;65904;52.278;20.972;2023-08-06T14:31:59;27.40;99.90
76967;DHT22;65904;52.278;20.972;2023-08-06T14:34:45;27.30;99.90
76967;DHT22;65904;52.278;20.972;2023-08-06T14:37:31;27.10;99.90
76967;DHT22;65904;52.278;20.972;2023-08-06T14:40:18;27.20;99.90
76967;DHT22;65904;52.278;20.972;2023-08-06T14:43:05;27.20;99.90
76967;DHT22;65904;52.278;20.972;2023-08-06T14:45:52;27.10;99.90
76967;DHT22;65904;52.278;20.972;2023-08-06T14:48:37;27.10;99.90
76967;DHT22;65904;52.278;20.972;2023-08-06T14:51:24;27.10;99.90
76967;DHT22;65904;52.278;20.972;2023-08-06T14:54:10;27.00;99.90
76967;DHT22;65904;52.278;20.972;2023-08-06T14:56:56;26.90;99.90
76967;DHT22;65904;52.278;20.972;2023-08-06T14:59:44;26.90;99.90
76967;DHT22;65904;52.278;20.972;2023-08-06T15:02:30;26.90;99.90
76967;DHT22;65904;52.278;20.972;2023-08-06T15:05:16;26.90;99.90
76967;DHT22;65904;52.278;20.972;2023-08-06T15:08:02;26.90;99.90
76967;DHT22;65904;52.278;20.972;2023-08-06T15:10:49;26.90;99.90
76967;DHT22;65904;52.278;20.972;2023-08-06T15:13:36;26.80;99.90
76967;DHT22;65904;52.278;20.972;2023-08-06T15:16:23;26.90;99.90
76967;DHT22;65904;52.278;20.972;2023-08-06T15:19:09;27.00;99.90
76967;DHT22;65904;52.278;20.972;2023-08-06T15:21:55;27.10;99.90
76967;DHT22;65904;52.278;20.972;2023-08-06T15:24:41;27.20;99.90
76967;DHT22;65904;52.278;20.972;2023-08-06T15:27:27;27.10;99.90
76967;DHT22;65904;52.278;20.972;2023-08-06T15:30:13;27.10;99.90
76967;DHT22;65904;52.278;20.972;2023-08-06T15:33:01;27.00;99.90
76967;DHT22;65904;52.278;20.972;2023-08-06T15:35:48;26.90;99.90
76967;DHT22;65904;52.278;20.972;2023-08-06T15:38:34;26.90;99.90
76967;DHT22;65904;52.278;20.972;2023-08-06T15:41:20;26.80;99.90
76967;DHT22;65904;52.278;20.972;2023-08-06T15:44:06;26.80;99.90
76967;DHT22;65904;52.278;20.972;2023-08-06T15:46:52;26.70;99.90
76967;DHT22;65904;52.278;20.972;2023-08-06T15:49:39;26.70;99.90
76967;DHT22;65904;52.278;20.972;2023-08-06T15:52:26;26.70;99.90
76967;DHT22;65904;52.278;20.972;2023-08-06T15:55:12;26.60;99.90
76967;DHT22;65904;52.278;20.972;2023-08-06T15:57:58;26.60;99.90
76967;DHT22;65904;52.278;20.972;2023-08-06T16:00:44;26.60;99.90
76967;DHT22;65904;52.278;20.972;2023-08-06T16:03:30;26.60;99.90
76967;DHT22;65904;52.278;20.972;2023-08-06T16:06:17;26.50;99.90
76967;DHT22;65904;52.278;20.972;2023-08-06T16:09:03;26.60;99.90
76967;DHT22;65904;52.278;20.972;2023-08-06T16:11:49;26.60;99.90
76967;DHT22;65904;52.278;20.972;2023-08-06T16:14:36;26.50;99.90
76967;DHT22;65904;52.278;20.972;2023-08-06T16:17:21;26.50;99.90
76967;DHT22;65904;52.278;20.972;2023-08-06T16:20:08;26.50;99.90
76967;DHT22;65904;52.278;20.972;2023-08-06T16:22:55;26.50;99.90
76967;DHT22;65904;52.278;20.972;2023-08-06T16:25:41;26.40;99.90
76967;DHT22;65904;52.278;20.972;2023-08-06T16:28:29;26.40;99.90
76967;DHT22;65904;52.278;20.972;2023-08-06T16:31:15;26.40;99.90
76967;DHT22;65904;52.278;20.972;2023-08-06T16:34:01;26.30;99.90
76967;DHT22;65904;52.278;20.972;2023-08-06T16:36:47;26.40;99.90
76967;DHT22;65904;52.278;20.972;2023-08-06T16:39:34;26.30;99.90
76967;DHT22;65904;52.278;20.972;2023-08-06T16:42:20;26.40;99.90
76967;DHT22;65904;52.278;20.972;2023-08-06T16:45:07;26.30;99.90
76967;DHT22;65904;52.278;20.972;2023-08-06T16:47:53;26.30;99.90
76967;DHT22;65904;52.278;20.972;2023-08-06T16:50:39;26.30;99.90
76967;DHT22;65904;52.278;20.972;2023-08-06T16:53:25;26.30;99.90
76967;DHT22;65904;52.278;20.972;2023-08-06T16:56:13;26.20;99.90
76967;DHT22;65904;52.278;20.972;2023-08-06T16:58:59;26.20;99.90
76967;DHT22;65904;52.278;20.972;2023-08-06T17:01:45;26.20;99.90
76967;DHT22;65904;52.278;20.972;2023-08-06T17:04:32;26.20;99.90
76967;DHT22;65904;52.278;20.972;2023-08-06T17:07:18;26.20;99.90
76967;DHT22;65904;52.278;20.972;2023-08-06T17:10:04;26.10;99.90
76967;DHT22;65904;52.278;20.972;2023-08-06T17:12:52;26.10;99.90
76967;DHT22;65904;52.278;20.972;2023-08-06T17:15:38;26.10;99.90
76967;DHT22;65904;52.278;20.972;2023-08-06T17:18:25;26.10;99.90